Lougheed, Canada
Current Conditions -  °F | °C
As of 1:20 PM on Friday 28 Nov 2014 (Local Time) from CYLL Reporting Station
Broken Clouds Broken Clouds  
Wind Chill: -20°   Ceiling: 10000
Heat Index: -4°   Visibility: 15mi
Dew Point: -9°   Wind: 9mph
Humidity: 78%   Direction: 30°NNE
Pressure: 29.67"   Gusts: NA
Location:  52.73°N, 111.55°W
Report Text: CYLL 282020Z 03008KT 15SM FEW028 BKN100 BKN150 M20/M23 A2967 RMK SC1AC4AC2 PRESFR SLP114
Loading
Personal Weather Stations






























Interactive Weather Map New forecast layout! Learn more

10-Day Weather Forecast

Advertisements
Track Severe Weather on mobile